WetterOnline ( https://www.wetteronline.de )

Wetter aktuell Herford

Aktuelles Wetter: Bad Salzuflen (139m)

6-stündlich | Neueste Meldungen
Ortszeit Temperatur Wetter
Di, 18.02. 13:00 7.2° C bedeckt
Di, 18.02. 7:00 4.1° C bewölkt
Di, 18.02. 1:00 6.1° C bewölkt
Mo, 17.02. 19:00 5.8° C fast wolkenlos
Mo, 17.02. 13:00 9.7° C leicht bewölkt
Mo, 17.02. 7:00 7.3° C wolkig
Mo, 17.02. 1:00 7.2° C leichter Regen
So, 16.02. 19:00 17.2° C bedeckt
Ortszeit Temperatur Wetter
Di, 18.02. 13:30 7.2° C bedeckt
Di, 18.02. 13:20 7.2° C bedeckt
Di, 18.02. 13:10 7.3° C bedeckt
Di, 18.02. 13:00 7.2° C bedeckt
Di, 18.02. 12:50 7.2° C bedeckt
Di, 18.02. 12:40 7.6° C bewölkt
Di, 18.02. 12:30 7.6° C bewölkt
Di, 18.02. 12:00 7.2° C wolkig
Di, 18.02. 11:30 6.4° C bewölkt
Di, 18.02. 11:00 6.4° C bewölkt
Di, 18.02. 10:30 6.1° C bewölkt
Ortszeit Relative Feuchte Sichtweite
Di, 18.02. 13:00 59% 40 km
Di, 18.02. 7:00 83% 55 km
Di, 18.02. 1:00 83% 35 km
Mo, 17.02. 19:00 84% 50 km
Mo, 17.02. 13:00 59% 35 km
Mo, 17.02. 7:00 63% 40 km
Mo, 17.02. 1:00 86% 35 km
So, 16.02. 19:00 47% 65 km
Ortszeit Relative Feuchte Sichtweite
Di, 18.02. 13:30 63% 40 km
Di, 18.02. 13:20 63% -
Di, 18.02. 13:10 62% -
Di, 18.02. 13:00 59% 40 km
Di, 18.02. 12:50 59% -
Di, 18.02. 12:40 61% -
Di, 18.02. 12:30 61% 40 km
Di, 18.02. 12:00 66% 35 km
Di, 18.02. 11:30 68% 30 km
Di, 18.02. 11:00 68% 30 km
Di, 18.02. 10:30 70% 35 km
Ortszeit Niederschlagsmenge Niederschlagsart
Di, 18.02. 13:00 0.0 l/m2 in 6 Std. -
Di, 18.02. 7:00 4 l/m2 in 12 Std. Schnee, Regen
Di, 18.02. 1:00 0.3 l/m2 in 6 Std. Regen
Mo, 17.02. 19:00 0.5 l/m2 in 12 Std. Regen
Mo, 17.02. 13:00 0.0 l/m2 in 6 Std. -
Mo, 17.02. 7:00 6 l/m2 in 12 Std. Regen
Mo, 17.02. 1:00 6 l/m2 in 6 Std. Regen
So, 16.02. 19:00 2 l/m2 in 12 Std. Regen
Ortszeit Niederschlagsmenge Niederschlagsart
Di, 18.02. 13:30 0.0 l/m2 in 1 Std. -
Di, 18.02. 13:20 keine Meldung -
Di, 18.02. 13:10 keine Meldung -
Di, 18.02. 13:00 0.0 l/m2 in 1 Std. -
Di, 18.02. 12:50 keine Meldung -
Di, 18.02. 12:40 keine Meldung -
Di, 18.02. 12:30 0.0 l/m2 in 1 Std. -
Di, 18.02. 12:00 0.0 l/m2 in 1 Std. -
Di, 18.02. 11:30 0.0 l/m2 in 1 Std. -
Di, 18.02. 11:00 0.0 l/m2 in 1 Std. -
Di, 18.02. 10:30 0.0 l/m2 in 1 Std. -
Ortszeit Stärke Spitze Richtung
km/h Bft. km/h Grad Sektor
Di, 18.02. 13:00 32 5 54 - -
Di, 18.02. 7:00 15 3 50 - -
Di, 18.02. 1:00 14 3 40 - -
Mo, 17.02. 19:00 14 3 61 - -
Mo, 17.02. 13:00 24 4 48 - -
Mo, 17.02. 7:00 22 4 58 - -
Mo, 17.02. 1:00 28 4 85 - -
So, 16.02. 19:00 40 6 72 - -
Ortszeit Stärke Spitze Richtung
km/h Bft. km/h Grad Sektor
Di, 18.02. 13:30 22 4 52 - -
Di, 18.02. 13:20 22 4 - - -
Di, 18.02. 13:10 24 4 - - -
Di, 18.02. 13:00 32 5 54 - -
Di, 18.02. 12:50 32 5 - - -
Di, 18.02. 12:40 29 5 - - -
Di, 18.02. 12:30 28 4 52 - -
Di, 18.02. 12:00 25 4 54 - -
Di, 18.02. 11:30 28 4 56 - -
Di, 18.02. 11:00 25 4 50 - -
Di, 18.02. 10:30 26 4 50 - -
Ortszeit Untergrenze Bedeckung Gattung
total tief tief mittel hoch
Di, 18.02. 13:00 1020 m 8/8 8/8 - - -
Di, 18.02. 7:00 780 m 7/8 6/8 - - -
Di, 18.02. 1:00 480 m 7/8 7/8 - - -
Mo, 17.02. 19:00 750 m 1/8 1/8 - - -
Mo, 17.02. 13:00 1050 m 3/8 3/8 - - -
Mo, 17.02. 7:00 1080 m 8/8 2/8 - - -
Mo, 17.02. 1:00 570 m 8/8 8/8 - - -
So, 16.02. 19:00 1500 m 8/8 8/8 - - -
Ortszeit Bedeckungsgrad in Achtel und Wolkenuntergrenze
Di, 18.02. 13:30 1(960m) 5(1290m) 8(1500m)
Di, 18.02. 13:20 1(960m) 5(1290m) 8(1500m)
Di, 18.02. 13:10 3(960m) 7(1290m) 8(1500m)
Di, 18.02. 13:00 7(1020m) 7(1320m) 8(1500m)
Di, 18.02. 12:50 7(1020m) 7(1320m) 8(1500m)
Di, 18.02. 12:40 6(960m) 7(1290m)
Di, 18.02. 12:30 4(870m) 7(1110m) 7(1350m)
Di, 18.02. 12:00 4(750m) 5(930m) 6(1230m)
Di, 18.02. 11:30 6(810m) 7(1080m) 7(1320m)
Di, 18.02. 11:00 5(780m) 7(990m) 7(1230m)
Di, 18.02. 10:30 7(750m) 7(990m)
Ortszeit Luftdruck NN (hPa) Tendenz (hPa in 3 Std.)
Di, 18.02. 13:00 1020 + 0,1
Di, 18.02. 7:00 1018 + 1,9
Di, 18.02. 1:00 1015 + 1,1
Mo, 17.02. 19:00 1013 + 1,9
Mo, 17.02. 13:00 1012 - 0,7
Mo, 17.02. 7:00 1012 + 3,0
Mo, 17.02. 1:00 1007 + 2,7
So, 16.02. 19:00 997 - 2,2
Ortszeit Luftdruck NN (hPa) Tendenz (hPa in 3 Std.)
Di, 18.02. 13:30 1020 - 0,3
Di, 18.02. 13:20 1020 keine Meldung
Di, 18.02. 13:10 1020 keine Meldung
Di, 18.02. 13:00 1020 + 0,1
Di, 18.02. 12:50 1020 keine Meldung
Di, 18.02. 12:40 1020 keine Meldung
Di, 18.02. 12:30 1020 + 0,5
Di, 18.02. 12:00 1020 + 0,8
Di, 18.02. 11:30 1020 + 1,3
Di, 18.02. 11:00 1020 + 1,8
Di, 18.02. 10:30 1020 + 1,9
Ortszeit Schneehöhe (cm)
Di, 18.02. 13:00 0
Di, 18.02. 7:00 0
Di, 18.02. 1:00 0
Mo, 17.02. 19:00 0
Mo, 17.02. 13:00 0
Mo, 17.02. 7:00 0
Mo, 17.02. 1:00 0
So, 16.02. 19:00 0
Ortszeit Schneehöhe (cm)
Di, 18.02. 13:30 0
Di, 18.02. 13:20 0
Di, 18.02. 13:10 0
Di, 18.02. 13:00 0
Di, 18.02. 12:50 0
Di, 18.02. 12:40 0
Di, 18.02. 12:30 0
Di, 18.02. 12:00 0
Di, 18.02. 11:30 0
Di, 18.02. 11:00 0
Di, 18.02. 10:30 0
Link zu dieser Seite / Seite empfehlen

Das Wetter in ...